PWSweather.com
Personal Weather Stations
Station Observations
WESTON01
WestonSuperMareGB BS22 8RT

WestonSuperMareGB BS22 8RT

Lat: 51.351508, Lon: -2.933373

Elevation: 15

Station Type: Fine Offset WH1080

http://www.westonweather.co.uk

High Low Average
Temperature 69.9°F21.1°C 60.3°F15.7°C 64.6°F18.1°C
Dew Point 62.2°F16.8°C 54.7°F12.6°C 57.6°F14.2°C
Winds 16.8 mph 27.0 kmh Calm Calm 8.0 mph W12.9 kmh W
Wind Gusts 27.1 mph43.6 kmh -- 13.0 mph20.9 kmh
Humidity 87% 67% 78%
Pressure 30.05 in1017.6 mb 29.90 in1012.5 mb -
Precipitation 0.00 in0.0 mm - -
Hour Temp Dew Point Humidity Winds Wind Gusts Pressure Precip Precip Rate Daily Precip Total
12:00 AM 61.6°F16.4°C 57.1°F13.9°C 85% 5.8 mph WNW9.3 kmh WNW 8.3 mph13.4 kmh 29.90 in1012.5 mb 0.00 in0.0 mm 0.00 in0.0 mm 0.00 in0.0 mm
12:05 AM 61.6°F16.4°C 57.1°F13.9°C 85% 5.0 mph NW8.0 kmh NW 8.3 mph13.4 kmh 29.93 in1013.5 mb 0.00 in0.0 mm 0.00 in0.0 mm 0.00 in0.0 mm
12:10 AM 61.8°F16.6°C 57.2°F14.0°C 85% 4.5 mph NW7.2 kmh NW 7.4 mph11.9 kmh 29.93 in1013.5 mb 0.00 in0.0 mm 0.00 in0.0 mm 0.00 in0.0 mm
12:15 AM 61.8°F16.6°C 57.2°F14.0°C 85% 5.2 mph WNW8.4 kmh WNW 7.7 mph12.4 kmh 29.93 in1013.5 mb 0.00 in0.0 mm 0.00 in0.0 mm 0.00 in0.0 mm
12:20 AM 61.8°F16.6°C 57.2°F14.0°C 85% 5.8 mph NW9.3 kmh NW 10.4 mph16.7 kmh 29.93 in1013.5 mb 0.00 in0.0 mm 0.00 in0.0 mm 0.00 in0.0 mm
12:25 AM 61.8°F16.6°C 57.2°F14.0°C 85% 5.0 mph NW8.0 kmh NW 10.4 mph16.7 kmh 29.93 in1013.5 mb 0.00 in0.0 mm 0.00 in0.0 mm 0.00 in0.0 mm
12:30 AM 62.0°F16.7°C 57.4°F14.1°C 85% 4.5 mph W7.2 kmh W 7.7 mph12.4 kmh 29.93 in1013.5 mb 0.00 in0.0 mm 0.00 in0.0 mm 0.00 in0.0 mm
12:35 AM 62.0°F16.7°C 57.4°F14.1°C 85% 5.2 mph WNW8.4 kmh WNW 10.1 mph16.3 kmh 29.93 in1013.5 mb 0.00 in0.0 mm 0.00 in0.0 mm 0.00 in0.0 mm
12:40 AM 62.0°F16.7°C 57.4°F14.1°C 85% 4.2 mph NW6.8 kmh NW 10.1 mph16.3 kmh 29.93 in1013.5 mb 0.00 in0.0 mm 0.00 in0.0 mm 0.00 in0.0 mm
12:45 AM 62.0°F16.7°C 57.4°F14.1°C 85% 4.0 mph W6.4 kmh W 6.5 mph10.5 kmh 29.93 in1013.5 mb 0.00 in0.0 mm 0.00 in0.0 mm 0.00 in0.0 mm
12:50 AM 62.0°F16.7°C 57.4°F14.1°C 85% 5.0 mph W8.0 kmh W 7.7 mph12.4 kmh 29.90 in1012.5 mb 0.00 in0.0 mm 0.00 in0.0 mm 0.00 in0.0 mm
12:55 AM 61.8°F16.6°C 57.2°F14.0°C 85% 4.6 mph W7.4 kmh W 7.7 mph12.4 kmh 29.90 in1012.5 mb 0.00 in0.0 mm 0.00 in0.0 mm 0.00 in0.0 mm
01:00 AM 61.8°F16.6°C 57.2°F14.0°C 85% 4.2 mph WNW6.8 kmh WNW 5.7 mph9.2 kmh 29.90 in1012.5 mb 0.00 in0.0 mm 0.00 in0.0 mm 0.00 in0.0 mm
01:05 AM 61.6°F16.4°C 57.1°F13.9°C 85% 4.5 mph WNW7.2 kmh WNW 5.7 mph9.2 kmh 29.90 in1012.5 mb 0.00 in0.0 mm 0.00 in0.0 mm 0.00 in0.0 mm
01:10 AM 61.6°F16.4°C 57.1°F13.9°C 85% 5.1 mph WNW8.2 kmh WNW 7.7 mph12.4 kmh 29.90 in1012.5 mb 0.00 in0.0 mm 0.00 in0.0 mm 0.00 in0.0 mm
01:15 AM 61.4°F16.3°C 56.9°F13.8°C 85% 5.2 mph WNW8.4 kmh WNW 7.7 mph12.4 kmh 29.90 in1012.5 mb 0.00 in0.0 mm 0.00 in0.0 mm 0.00 in0.0 mm
01:20 AM 61.4°F16.3°C 56.9°F13.8°C 85% 4.3 mph WNW6.9 kmh WNW 7.7 mph12.4 kmh 29.93 in1013.5 mb 0.00 in0.0 mm 0.00 in0.0 mm 0.00 in0.0 mm
01:25 AM 61.4°F16.3°C 57.2°F14.0°C 86% 3.5 mph NW5.6 kmh NW 5.7 mph9.2 kmh 29.93 in1013.5 mb 0.00 in0.0 mm 0.00 in0.0 mm 0.00 in0.0 mm
01:30 AM 61.4°F16.3°C 57.2°F14.0°C 86% 4.0 mph NW6.4 kmh NW 7.7 mph12.4 kmh 29.93 in1013.5 mb 0.00 in0.0 mm 0.00 in0.0 mm 0.00 in0.0 mm
01:35 AM 61.4°F16.3°C 57.2°F14.0°C 86% 4.1 mph WNW6.6 kmh WNW 7.7 mph12.4 kmh 29.93 in1013.5 mb 0.00 in0.0 mm 0.00 in0.0 mm 0.00 in0.0 mm
01:40 AM 61.4°F16.3°C 57.2°F14.0°C 86% 3.2 mph WNW5.1 kmh WNW 4.8 mph7.7 kmh 29.93 in1013.5 mb 0.00 in0.0 mm 0.00 in0.0 mm 0.00 in0.0 mm
01:45 AM 61.4°F16.3°C 57.2°F14.0°C 86% 2.5 mph WNW4.0 kmh WNW 4.2 mph6.8 kmh 29.93 in1013.5 mb 0.00 in0.0 mm 0.00 in0.0 mm 0.00 in0.0 mm
01:50 AM 61.3°F16.3°C 57.0°F13.9°C 86% 2.8 mph WNW4.5 kmh WNW 3.9 mph6.3 kmh 29.90 in1012.5 mb 0.00 in0.0 mm 0.00 in0.0 mm 0.00 in0.0 mm
01:55 AM 61.3°F16.3°C 57.0°F13.9°C 86% 2.6 mph WNW4.2 kmh WNW 4.2 mph6.8 kmh 29.90 in1012.5 mb 0.00 in0.0 mm 0.00 in0.0 mm 0.00 in0.0 mm
02:00 AM 61.1°F16.2°C 56.8°F13.8°C 86% 2.6 mph WNW4.2 kmh WNW 4.8 mph7.7 kmh 29.90 in1012.5 mb 0.00 in0.0 mm 0.00 in0.0 mm 0.00 in0.0 mm
02:05 AM 60.9°F16.1°C 56.7°F13.7°C 86% 3.1 mph WNW5.0 kmh WNW 4.8 mph7.7 kmh 29.90 in1012.5 mb 0.00 in0.0 mm 0.00 in0.0 mm 0.00 in0.0 mm
02:10 AM 60.9°F16.1°C 57.0°F13.9°C 87% 3.8 mph WNW6.1 kmh WNW 6.5 mph10.5 kmh 29.90 in1012.5 mb 0.00 in0.0 mm 0.00 in0.0 mm 0.00 in0.0 mm
02:15 AM 60.9°F16.1°C 57.0°F13.9°C 87% 4.8 mph WNW7.7 kmh WNW 8.3 mph13.4 kmh 29.90 in1012.5 mb 0.00 in0.0 mm 0.00 in0.0 mm 0.00 in0.0 mm
02:20 AM 60.9°F16.1°C 57.0°F13.9°C 87% 6.0 mph NW9.7 kmh NW 10.7 mph17.2 kmh 29.93 in1013.5 mb 0.00 in0.0 mm 0.00 in0.0 mm 0.00 in0.0 mm
02:25 AM 60.9°F16.1°C 57.0°F13.9°C 87% 7.1 mph WNW11.4 kmh WNW 13.7 mph22.0 kmh 29.93 in1013.5 mb 0.00 in0.0 mm 0.00 in0.0 mm 0.00 in0.0 mm
02:30 AM 60.9°F16.1°C 57.0°F13.9°C 87% 7.1 mph WNW11.4 kmh WNW 13.7 mph22.0 kmh 29.93 in1013.5 mb 0.00 in0.0 mm 0.00 in0.0 mm 0.00 in0.0 mm
02:35 AM 60.9°F16.1°C 57.0°F13.9°C 87% 7.0 mph W11.3 kmh W 13.1 mph21.1 kmh 29.93 in1013.5 mb 0.00 in0.0 mm 0.00 in0.0 mm 0.00 in0.0 mm
02:40 AM 60.7°F15.9°C 56.8°F13.8°C 87% 6.7 mph WNW10.8 kmh WNW 11.3 mph18.2 kmh 29.93 in1013.5 mb 0.00 in0.0 mm 0.00 in0.0 mm 0.00 in0.0 mm
02:45 AM 60.7°F15.9°C 56.8°F13.8°C 87% 6.4 mph NW10.3 kmh NW 9.2 mph14.8 kmh 29.93 in1013.5 mb 0.00 in0.0 mm 0.00 in0.0 mm 0.00 in0.0 mm
02:50 AM 60.7°F15.9°C 56.8°F13.8°C 87% 7.4 mph NW11.9 kmh NW 10.7 mph17.2 kmh 29.93 in1013.5 mb 0.00 in0.0 mm 0.00 in0.0 mm 0.00 in0.0 mm
02:55 AM 60.7°F15.9°C 56.8°F13.8°C 87% 6.5 mph NW10.5 kmh NW 10.7 mph17.2 kmh 29.93 in1013.5 mb 0.00 in0.0 mm 0.00 in0.0 mm 0.00 in0.0 mm
03:00 AM 60.7°F15.9°C 56.5°F13.6°C 86% 5.0 mph NW8.0 kmh NW 8.3 mph13.4 kmh 29.93 in1013.5 mb 0.00 in0.0 mm 0.00 in0.0 mm 0.00 in0.0 mm
03:05 AM 60.7°F15.9°C 56.5°F13.6°C 86% 6.5 mph NW10.5 kmh NW 13.4 mph21.6 kmh 29.93 in1013.5 mb 0.00 in0.0 mm 0.00 in0.0 mm 0.00 in0.0 mm
03:10 AM 60.9°F16.1°C 56.7°F13.7°C 86% 7.6 mph NW12.2 kmh NW 13.4 mph21.6 kmh 29.93 in1013.5 mb 0.00 in0.0 mm 0.00 in0.0 mm 0.00 in0.0 mm
03:15 AM 60.9°F16.1°C 56.7°F13.7°C 86% 7.5 mph WNW12.1 kmh WNW 14.0 mph22.5 kmh 29.93 in1013.5 mb 0.00 in0.0 mm 0.00 in0.0 mm 0.00 in0.0 mm
03:20 AM 60.9°F16.1°C 56.7°F13.7°C 86% 7.2 mph WNW11.6 kmh WNW 14.0 mph22.5 kmh 29.93 in1013.5 mb 0.00 in0.0 mm 0.00 in0.0 mm 0.00 in0.0 mm
03:25 AM 60.9°F16.1°C 56.7°F13.7°C 86% 5.1 mph NW8.2 kmh NW 9.2 mph14.8 kmh 29.93 in1013.5 mb 0.00 in0.0 mm 0.00 in0.0 mm 0.00 in0.0 mm
03:30 AM 60.7°F15.9°C 56.5°F13.6°C 86% 4.3 mph NW6.9 kmh NW 7.1 mph11.4 kmh 29.93 in1013.5 mb 0.00 in0.0 mm 0.00 in0.0 mm 0.00 in0.0 mm
03:35 AM 60.7°F15.9°C 56.5°F13.6°C 86% 4.9 mph W7.9 kmh W 7.4 mph11.9 kmh 29.93 in1013.5 mb 0.00 in0.0 mm 0.00 in0.0 mm 0.00 in0.0 mm
03:40 AM 60.7°F15.9°C 56.2°F13.4°C 85% 5.3 mph W8.5 kmh W 7.4 mph11.9 kmh 29.93 in1013.5 mb 0.00 in0.0 mm 0.00 in0.0 mm 0.00 in0.0 mm
03:45 AM 60.5°F15.8°C 56.0°F13.3°C 85% 4.7 mph W7.6 kmh W 7.4 mph11.9 kmh 29.93 in1013.5 mb 0.00 in0.0 mm 0.00 in0.0 mm 0.00 in0.0 mm
03:50 AM 60.5°F15.8°C 56.0°F13.3°C 85% 3.9 mph WNW6.3 kmh WNW 7.1 mph11.4 kmh 29.93 in1013.5 mb 0.00 in0.0 mm 0.00 in0.0 mm 0.00 in0.0 mm
03:55 AM 60.3°F15.7°C 55.8°F13.2°C 85% 3.6 mph NW5.8 kmh NW 7.1 mph11.4 kmh 29.93 in1013.5 mb 0.00 in0.0 mm 0.00 in0.0 mm 0.00 in0.0 mm
04:00 AM 60.3°F15.7°C 55.8°F13.2°C 85% 3.9 mph NW6.3 kmh NW 6.5 mph10.5 kmh 29.93 in1013.5 mb 0.00 in0.0 mm 0.00 in0.0 mm 0.00 in0.0 mm
04:05 AM 60.3°F15.7°C 55.8°F13.2°C 85% 3.4 mph NW5.5 kmh NW 6.5 mph10.5 kmh 29.93 in1013.5 mb 0.00 in0.0 mm 0.00 in0.0 mm 0.00 in0.0 mm
04:10 AM 60.3°F15.7°C 56.1°F13.4°C 86% 3.4 mph WNW5.5 kmh WNW 5.1 mph8.2 kmh 29.93 in1013.5 mb 0.00 in0.0 mm 0.00 in0.0 mm 0.00 in0.0 mm
04:15 AM 60.3°F15.7°C 56.1°F13.4°C 86% 3.5 mph WNW5.6 kmh WNW 5.1 mph8.2 kmh 29.93 in1013.5 mb 0.00 in0.0 mm 0.00 in0.0 mm 0.00 in0.0 mm
04:20 AM 60.3°F15.7°C 56.1°F13.4°C 86% 4.5 mph WNW7.2 kmh WNW 7.7 mph12.4 kmh 29.93 in1013.5 mb 0.00 in0.0 mm 0.00 in0.0 mm 0.00 in0.0 mm
04:25 AM 60.5°F15.8°C 56.0°F13.3°C 85% 5.2 mph WNW8.4 kmh WNW 7.7 mph12.4 kmh 29.93 in1013.5 mb 0.00 in0.0 mm 0.00 in0.0 mm 0.00 in0.0 mm
04:35 AM 60.5°F15.8°C 56.0°F13.3°C 85% 2.5 mph WNW4.0 kmh WNW 4.0 mph6.4 kmh 29.93 in1013.5 mb 0.00 in0.0 mm 0.00 in0.0 mm 0.00 in0.0 mm
04:40 AM 60.5°F15.8°C 56.0°F13.3°C 85% 1.0 mph NW1.6 kmh NW 3.6 mph5.8 kmh 29.93 in1013.5 mb 0.00 in0.0 mm 0.00 in0.0 mm 0.00 in0.0 mm
04:45 AM 60.5°F15.8°C 56.0°F13.3°C 85% 1.2 mph NW1.9 kmh NW 5.7 mph9.2 kmh 29.93 in1013.5 mb 0.00 in0.0 mm 0.00 in0.0 mm 0.00 in0.0 mm
04:50 AM 60.5°F15.8°C 56.0°F13.3°C 85% 2.1 mph NW3.4 kmh NW 5.7 mph9.2 kmh 29.93 in1013.5 mb 0.00 in0.0 mm 0.00 in0.0 mm 0.00 in0.0 mm
04:55 AM 60.5°F15.8°C 56.0°F13.3°C 85% 2.2 mph NW3.5 kmh NW 4.2 mph6.8 kmh 29.93 in1013.5 mb 0.00 in0.0 mm 0.00 in0.0 mm 0.00 in0.0 mm
05:00 AM 60.5°F15.8°C 56.0°F13.3°C 85% 2.4 mph WNW3.9 kmh WNW 4.2 mph6.8 kmh 29.93 in1013.5 mb 0.00 in0.0 mm 0.00 in0.0 mm 0.00 in0.0 mm
05:05 AM 60.5°F15.8°C 56.0°F13.3°C 85% 2.2 mph WSW3.5 kmh WSW 4.2 mph6.8 kmh 29.93 in1013.5 mb 0.00 in0.0 mm 0.00 in0.0 mm 0.00 in0.0 mm
05:10 AM 60.5°F15.8°C 56.0°F13.3°C 85% 1.7 mph WSW2.7 kmh WSW 3.0 mph4.8 kmh 29.93 in1013.5 mb 0.00 in0.0 mm 0.00 in0.0 mm 0.00 in0.0 mm
05:15 AM 60.5°F15.8°C 56.0°F13.3°C 85% 1.2 mph W1.9 kmh W 3.0 mph4.8 kmh 29.93 in1013.5 mb 0.00 in0.0 mm 0.00 in0.0 mm 0.00 in0.0 mm
05:20 AM 60.5°F15.8°C 56.0°F13.3°C 85% 0.4 mph W0.6 kmh W 1.5 mph2.4 kmh 29.96 in1014.6 mb 0.00 in0.0 mm 0.00 in0.0 mm 0.00 in0.0 mm
05:25 AM 60.5°F15.8°C 56.0°F13.3°C 85% Calm Calm -- 29.96 in1014.6 mb 0.00 in0.0 mm 0.00 in0.0 mm 0.00 in0.0 mm
05:30 AM 60.5°F15.8°C 56.0°F13.3°C 85% Calm Calm -- 29.96 in1014.6 mb 0.00 in0.0 mm 0.00 in0.0 mm 0.00 in0.0 mm
05:35 AM 60.5°F15.8°C 56.0°F13.3°C 85% Calm Calm -- 29.96 in1014.6 mb 0.00 in0.0 mm 0.00 in0.0 mm 0.00 in0.0 mm
05:40 AM 60.5°F15.8°C 56.0°F13.3°C 85% Calm Calm -- 29.96 in1014.6 mb 0.00 in0.0 mm 0.00 in0.0 mm 0.00 in0.0 mm
05:45 AM 60.5°F15.8°C 56.0°F13.3°C 85% Calm Calm -- 29.96 in1014.6 mb 0.00 in0.0 mm 0.00 in0.0 mm 0.00 in0.0 mm
05:50 AM 60.5°F15.8°C 56.0°F13.3°C 85% 0.1 mph NE0.2 kmh NE 1.2 mph1.9 kmh 29.96 in1014.6 mb 0.00 in0.0 mm 0.00 in0.0 mm 0.00 in0.0 mm
05:55 AM 60.5°F15.8°C 56.0°F13.3°C 85% 0.1 mph NE0.2 kmh NE 1.2 mph1.9 kmh 29.96 in1014.6 mb 0.00 in0.0 mm 0.00 in0.0 mm 0.00 in0.0 mm
06:00 AM 60.5°F15.8°C 56.3°F13.5°C 86% Calm Calm -- 29.96 in1014.6 mb 0.00 in0.0 mm 0.00 in0.0 mm 0.00 in0.0 mm
06:05 AM 60.7°F15.9°C 56.5°F13.6°C 86% Calm Calm -- 29.96 in1014.6 mb 0.00 in0.0 mm 0.00 in0.0 mm 0.00 in0.0 mm
06:10 AM 60.7°F15.9°C 56.5°F13.6°C 86% 0.4 mph S0.6 kmh S 1.8 mph2.9 kmh 29.96 in1014.6 mb 0.00 in0.0 mm 0.00 in0.0 mm 0.00 in0.0 mm
06:15 AM 60.7°F15.9°C 56.5°F13.6°C 86% 0.8 mph S1.3 kmh S 2.1 mph3.4 kmh 29.96 in1014.6 mb 0.00 in0.0 mm 0.00 in0.0 mm 0.00 in0.0 mm
06:20 AM 60.9°F16.1°C 56.7°F13.7°C 86% 0.7 mph S1.1 kmh S 2.1 mph3.4 kmh 29.96 in1014.6 mb 0.00 in0.0 mm 0.00 in0.0 mm 0.00 in0.0 mm
06:25 AM 61.1°F16.2°C 56.8°F13.8°C 86% 0.4 mph S0.6 kmh S 2.1 mph3.4 kmh 29.96 in1014.6 mb 0.00 in0.0 mm 0.00 in0.0 mm 0.00 in0.0 mm
06:30 AM 61.3°F16.3°C 57.0°F13.9°C 86% 0.6 mph S1.0 kmh S 2.1 mph3.4 kmh 29.96 in1014.6 mb 0.00 in0.0 mm 0.00 in0.0 mm 0.00 in0.0 mm
06:35 AM 61.4°F16.3°C 56.9°F13.8°C 85% 0.7 mph S1.1 kmh S 2.1 mph3.4 kmh 29.96 in1014.6 mb 0.00 in0.0 mm 0.00 in0.0 mm 0.00 in0.0 mm
06:40 AM 61.4°F16.3°C 56.9°F13.8°C 85% 0.4 mph S0.6 kmh S 2.1 mph3.4 kmh 29.96 in1014.6 mb 0.00 in0.0 mm 0.00 in0.0 mm 0.00 in0.0 mm
06:45 AM 61.8°F16.6°C 57.2°F14.0°C 85% 0.1 mph S0.2 kmh S 2.1 mph3.4 kmh 29.96 in1014.6 mb 0.00 in0.0 mm 0.00 in0.0 mm 0.00 in0.0 mm
06:50 AM 61.8°F16.6°C 57.2°F14.0°C 85% Calm Calm -- 29.96 in1014.6 mb 0.00 in0.0 mm 0.00 in0.0 mm 0.00 in0.0 mm
06:55 AM 62.0°F16.7°C 57.1°F13.9°C 84% Calm Calm -- 29.96 in1014.6 mb 0.00 in0.0 mm 0.00 in0.0 mm 0.00 in0.0 mm
07:00 AM 62.2°F16.8°C 57.3°F14.1°C 84% 0.2 mph S0.3 kmh S 1.5 mph2.4 kmh 29.96 in1014.6 mb 0.00 in0.0 mm 0.00 in0.0 mm 0.00 in0.0 mm
07:05 AM 62.5°F16.9°C 57.6°F14.2°C 84% 1.0 mph S1.6 kmh S 2.7 mph4.3 kmh 29.96 in1014.6 mb 0.00 in0.0 mm 0.00 in0.0 mm 0.00 in0.0 mm
07:10 AM 62.7°F17.1°C 57.8°F14.3°C 84% 2.0 mph S3.2 kmh S 3.6 mph5.8 kmh 29.96 in1014.6 mb 0.00 in0.0 mm 0.00 in0.0 mm 0.00 in0.0 mm
07:15 AM 62.7°F17.1°C 57.5°F14.2°C 83% 2.1 mph S3.4 kmh S 3.6 mph5.8 kmh 29.96 in1014.6 mb 0.00 in0.0 mm 0.00 in0.0 mm 0.00 in0.0 mm
07:20 AM 62.9°F17.2°C 57.6°F14.2°C 83% 1.8 mph S2.9 kmh S 3.0 mph4.8 kmh 29.99 in1015.6 mb 0.00 in0.0 mm 0.00 in0.0 mm 0.00 in0.0 mm
07:25 AM 63.0°F17.2°C 57.8°F14.3°C 83% 2.1 mph S3.4 kmh S 4.2 mph6.8 kmh 29.99 in1015.6 mb 0.00 in0.0 mm 0.00 in0.0 mm 0.00 in0.0 mm
07:30 AM 63.0°F17.2°C 57.8°F14.3°C 83% 2.6 mph S4.2 kmh S 4.2 mph6.8 kmh 29.99 in1015.6 mb 0.00 in0.0 mm 0.00 in0.0 mm 0.00 in0.0 mm
07:35 AM 63.2°F17.3°C 58.0°F14.4°C 83% 2.8 mph S4.5 kmh S 3.6 mph5.8 kmh 29.99 in1015.6 mb 0.00 in0.0 mm 0.00 in0.0 mm 0.00 in0.0 mm
07:40 AM 63.2°F17.3°C 58.0°F14.4°C 83% 2.4 mph S3.9 kmh S 3.9 mph6.3 kmh 29.99 in1015.6 mb 0.00 in0.0 mm 0.00 in0.0 mm 0.00 in0.0 mm
07:45 AM 63.4°F17.4°C 58.2°F14.6°C 83% 2.7 mph S4.3 kmh S 5.7 mph9.2 kmh 29.99 in1015.6 mb 0.00 in0.0 mm 0.00 in0.0 mm 0.00 in0.0 mm
07:50 AM 63.4°F17.4°C 57.8°F14.3°C 82% 3.2 mph S5.1 kmh S 5.7 mph9.2 kmh 29.99 in1015.6 mb 0.00 in0.0 mm 0.00 in0.0 mm 0.00 in0.0 mm
07:55 AM 63.8°F17.7°C 58.5°F14.7°C 83% 3.4 mph SSW5.5 kmh SSW 4.8 mph7.7 kmh 29.99 in1015.6 mb 0.00 in0.0 mm 0.00 in0.0 mm 0.00 in0.0 mm
08:00 AM 64.0°F17.8°C 58.7°F14.8°C 83% 2.9 mph SW4.7 kmh SW 4.8 mph7.7 kmh 29.99 in1015.6 mb 0.00 in0.0 mm 0.00 in0.0 mm 0.00 in0.0 mm
08:05 AM 64.1°F17.8°C 58.9°F14.9°C 83% 3.2 mph SSW5.1 kmh SSW 5.4 mph8.7 kmh 29.99 in1015.6 mb 0.00 in0.0 mm 0.00 in0.0 mm 0.00 in0.0 mm
08:10 AM 64.3°F17.9°C 59.0°F15.0°C 83% 4.6 mph SSW7.4 kmh SSW 7.4 mph11.9 kmh 29.99 in1015.6 mb 0.00 in0.0 mm 0.00 in0.0 mm 0.00 in0.0 mm
08:15 AM 64.3°F17.9°C 59.4°F15.2°C 84% 6.4 mph WSW10.3 kmh WSW 11.3 mph18.2 kmh 29.99 in1015.6 mb 0.00 in0.0 mm 0.00 in0.0 mm 0.00 in0.0 mm
08:20 AM 64.5°F18.1°C 59.9°F15.5°C 85% 7.0 mph W11.3 kmh W 11.3 mph18.2 kmh 29.99 in1015.6 mb 0.00 in0.0 mm 0.00 in0.0 mm 0.00 in0.0 mm
08:25 AM 64.5°F18.1°C 59.9°F15.5°C 85% 7.0 mph W11.3 kmh W 11.3 mph18.2 kmh 29.99 in1015.6 mb 0.00 in0.0 mm 0.00 in0.0 mm 0.00 in0.0 mm
08:30 AM 64.5°F18.1°C 59.9°F15.5°C 85% 8.5 mph W13.7 kmh W 11.3 mph18.2 kmh 29.99 in1015.6 mb 0.00 in0.0 mm 0.00 in0.0 mm 0.00 in0.0 mm
08:35 AM 64.7°F18.2°C 60.1°F15.6°C 85% 8.9 mph WSW14.3 kmh WSW 11.3 mph18.2 kmh 29.99 in1015.6 mb 0.00 in0.0 mm 0.00 in0.0 mm 0.00 in0.0 mm
08:40 AM 65.2°F18.4°C 60.6°F15.9°C 85% 9.1 mph W14.6 kmh W 12.8 mph20.6 kmh 29.99 in1015.6 mb 0.00 in0.0 mm 0.00 in0.0 mm 0.00 in0.0 mm
08:45 AM 65.8°F18.8°C 61.1°F16.2°C 85% 9.5 mph W15.3 kmh W 14.6 mph23.5 kmh 29.99 in1015.6 mb 0.00 in0.0 mm 0.00 in0.0 mm 0.00 in0.0 mm
08:50 AM 66.5°F19.2°C 61.5°F16.4°C 84% 10.0 mph WSW16.1 kmh WSW 19.0 mph30.6 kmh 29.99 in1015.6 mb 0.00 in0.0 mm 0.00 in0.0 mm 0.00 in0.0 mm
08:55 AM 66.7°F19.3°C 61.3°F16.3°C 83% 9.9 mph W15.9 kmh W 19.0 mph30.6 kmh 29.99 in1015.6 mb 0.00 in0.0 mm 0.00 in0.0 mm 0.00 in0.0 mm
09:00 AM 67.0°F19.4°C 61.7°F16.5°C 83% 10.0 mph W16.1 kmh W 16.7 mph26.9 kmh 29.99 in1015.6 mb 0.00 in0.0 mm 0.00 in0.0 mm 0.00 in0.0 mm
09:05 AM 67.2°F19.6°C 61.5°F16.4°C 82% 11.0 mph WSW17.7 kmh WSW 16.7 mph26.9 kmh 29.99 in1015.6 mb 0.00 in0.0 mm 0.00 in0.0 mm 0.00 in0.0 mm
09:10 AM 67.2°F19.6°C 61.2°F16.2°C 81% 10.4 mph W16.7 kmh W 16.7 mph26.9 kmh 29.99 in1015.6 mb 0.00 in0.0 mm 0.00 in0.0 mm 0.00 in0.0 mm
09:15 AM 67.6°F19.8°C 61.5°F16.4°C 81% 10.1 mph W16.3 kmh W 16.4 mph26.4 kmh 29.99 in1015.6 mb 0.00 in0.0 mm 0.00 in0.0 mm 0.00 in0.0 mm
09:20 AM 68.1°F20.1°C 62.0°F16.7°C 81% 9.3 mph W15.0 kmh W 14.0 mph22.5 kmh 30.02 in1016.6 mb 0.00 in0.0 mm 0.00 in0.0 mm 0.00 in0.0 mm
09:25 AM 68.3°F20.2°C 62.2°F16.8°C 81% 9.9 mph W15.9 kmh W 22.6 mph36.4 kmh 30.02 in1016.6 mb 0.00 in0.0 mm 0.00 in0.0 mm 0.00 in0.0 mm
09:30 AM 68.1°F20.1°C 61.7°F16.5°C 80% 11.3 mph W18.2 kmh W 22.6 mph36.4 kmh 30.02 in1016.6 mb 0.00 in0.0 mm 0.00 in0.0 mm 0.00 in0.0 mm
09:35 AM 67.9°F19.9°C 61.2°F16.2°C 79% 10.2 mph W16.4 kmh W 14.3 mph23.0 kmh 30.02 in1016.6 mb 0.00 in0.0 mm 0.00 in0.0 mm 0.00 in0.0 mm
09:40 AM 67.7°F19.8°C 61.0°F16.1°C 79% 8.9 mph WSW14.3 kmh WSW 10.7 mph17.2 kmh 30.02 in1016.6 mb 0.00 in0.0 mm 0.00 in0.0 mm 0.00 in0.0 mm
09:45 AM 68.3°F20.2°C 61.5°F16.4°C 79% 8.8 mph W14.2 kmh W 14.6 mph23.5 kmh 30.02 in1016.6 mb 0.00 in0.0 mm 0.00 in0.0 mm 0.00 in0.0 mm
09:50 AM 68.8°F20.4°C 61.7°F16.5°C 78% 8.5 mph W13.7 kmh W 14.6 mph23.5 kmh 30.02 in1016.6 mb 0.00 in0.0 mm 0.00 in0.0 mm 0.00 in0.0 mm
09:55 AM 69.2°F20.7°C 61.7°F16.5°C 77% 10.9 mph W17.5 kmh W 16.1 mph25.9 kmh 30.02 in1016.6 mb 0.00 in0.0 mm 0.00 in0.0 mm 0.00 in0.0 mm
10:00 AM 69.5°F20.8°C 62.0°F16.7°C 77% 12.9 mph W20.8 kmh W 16.1 mph25.9 kmh 30.02 in1016.6 mb 0.00 in0.0 mm 0.00 in0.0 mm 0.00 in0.0 mm
10:05 AM 69.5°F20.8°C 61.6°F16.4°C 76% 12.1 mph W19.5 kmh W 15.8 mph25.4 kmh 30.02 in1016.6 mb 0.00 in0.0 mm 0.00 in0.0 mm 0.00 in0.0 mm
10:10 AM 69.7°F20.9°C 61.8°F16.6°C 76% 12.6 mph WSW20.3 kmh WSW 16.1 mph25.9 kmh 30.02 in1016.6 mb 0.00 in0.0 mm 0.00 in0.0 mm 0.00 in0.0 mm
10:15 AM 69.9°F21.1°C 61.6°F16.4°C 75% 13.3 mph W21.4 kmh W 17.6 mph28.3 kmh 30.02 in1016.6 mb 0.00 in0.0 mm 0.00 in0.0 mm 0.00 in0.0 mm
10:20 AM 69.7°F20.9°C 61.4°F16.3°C 75% 12.2 mph WNW19.6 kmh WNW 20.2 mph32.5 kmh 30.02 in1016.6 mb 0.00 in0.0 mm 0.00 in0.0 mm 0.00 in0.0 mm
10:25 AM 69.5°F20.8°C 60.9°F16.1°C 74% 13.7 mph WNW22.0 kmh WNW 22.3 mph35.9 kmh 30.02 in1016.6 mb 0.00 in0.0 mm 0.00 in0.0 mm 0.00 in0.0 mm
10:30 AM 69.5°F20.8°C 60.5°F15.8°C 73% 15.5 mph WNW24.9 kmh WNW 25.0 mph40.2 kmh 30.02 in1016.6 mb 0.00 in0.0 mm 0.00 in0.0 mm 0.00 in0.0 mm
10:35 AM 69.5°F20.8°C 60.1°F15.6°C 72% 12.7 mph W20.4 kmh W 25.0 mph40.2 kmh 30.02 in1016.6 mb 0.00 in0.0 mm 0.00 in0.0 mm 0.00 in0.0 mm
10:40 AM 69.7°F20.9°C 59.9°F15.5°C 71% 10.4 mph WSW16.7 kmh WSW 13.7 mph22.0 kmh 30.02 in1016.6 mb 0.00 in0.0 mm 0.00 in0.0 mm 0.00 in0.0 mm
10:45 AM 69.7°F20.9°C 59.9°F15.5°C 71% 12.1 mph W19.5 kmh W 18.7 mph30.1 kmh 30.02 in1016.6 mb 0.00 in0.0 mm 0.00 in0.0 mm 0.00 in0.0 mm
10:50 AM 69.5°F20.8°C 59.7°F15.4°C 71% 12.6 mph W20.3 kmh W 19.3 mph31.1 kmh 30.02 in1016.6 mb 0.00 in0.0 mm 0.00 in0.0 mm 0.00 in0.0 mm
10:55 AM 69.5°F20.8°C 59.7°F15.4°C 71% 12.7 mph W20.4 kmh W 20.5 mph33.0 kmh 30.02 in1016.6 mb 0.00 in0.0 mm 0.00 in0.0 mm 0.00 in0.0 mm
11:00 AM 69.5°F20.8°C 59.7°F15.4°C 71% 13.9 mph W22.4 kmh W 20.5 mph33.0 kmh 30.02 in1016.6 mb 0.00 in0.0 mm 0.00 in0.0 mm 0.00 in0.0 mm
11:05 AM 69.3°F20.7°C 59.5°F15.3°C 71% 11.4 mph W18.3 kmh W 17.0 mph27.4 kmh 30.02 in1016.6 mb 0.00 in0.0 mm 0.00 in0.0 mm 0.00 in0.0 mm
11:10 AM 69.2°F20.7°C 59.4°F15.2°C 71% 11.6 mph W18.7 kmh W 20.2 mph32.5 kmh 30.02 in1016.6 mb 0.00 in0.0 mm 0.00 in0.0 mm 0.00 in0.0 mm
11:15 AM 69.0°F20.6°C 59.2°F15.1°C 71% 11.4 mph W18.3 kmh W 20.2 mph32.5 kmh 30.02 in1016.6 mb 0.00 in0.0 mm 0.00 in0.0 mm 0.00 in0.0 mm
11:20 AM 69.0°F20.6°C 59.2°F15.1°C 71% 10.9 mph W17.5 kmh W 17.0 mph27.4 kmh 30.02 in1016.6 mb 0.00 in0.0 mm 0.00 in0.0 mm 0.00 in0.0 mm
11:25 AM 68.8°F20.4°C 59.4°F15.2°C 72% 10.8 mph WSW17.4 kmh WSW 14.6 mph23.5 kmh 30.02 in1016.6 mb 0.00 in0.0 mm 0.00 in0.0 mm 0.00 in0.0 mm
11:30 AM 68.4°F20.2°C 59.1°F15.1°C 72% 10.4 mph W16.7 kmh W 14.3 mph23.0 kmh 30.02 in1016.6 mb 0.00 in0.0 mm 0.00 in0.0 mm 0.00 in0.0 mm
11:35 AM 68.4°F20.2°C 59.1°F15.1°C 72% 9.7 mph W15.6 kmh W 14.3 mph23.0 kmh 30.02 in1016.6 mb 0.00 in0.0 mm 0.00 in0.0 mm 0.00 in0.0 mm
11:40 AM 68.3°F20.2°C 59.3°F15.2°C 73% 8.3 mph W13.4 kmh W 14.3 mph23.0 kmh 30.02 in1016.6 mb 0.00 in0.0 mm 0.00 in0.0 mm 0.00 in0.0 mm
11:45 AM 68.3°F20.2°C 59.3°F15.2°C 73% 10.1 mph W16.3 kmh W 17.6 mph28.3 kmh 30.02 in1016.6 mb 0.00 in0.0 mm 0.00 in0.0 mm 0.00 in0.0 mm
11:50 AM 68.1°F20.1°C 59.5°F15.3°C 74% 12.0 mph WSW19.3 kmh WSW 17.6 mph28.3 kmh 30.02 in1016.6 mb 0.00 in0.0 mm 0.00 in0.0 mm 0.00 in0.0 mm
11:55 AM 67.7°F19.8°C 59.1°F15.1°C 74% 13.3 mph WSW21.4 kmh WSW 16.7 mph26.9 kmh 30.02 in1016.6 mb 0.00 in0.0 mm 0.00 in0.0 mm 0.00 in0.0 mm
12:00 PM 67.4°F19.7°C 58.8°F14.9°C 74% 13.5 mph W21.7 kmh W 17.3 mph27.8 kmh 30.02 in1016.6 mb 0.00 in0.0 mm 0.00 in0.0 mm 0.00 in0.0 mm
12:05 PM 67.0°F19.4°C 58.8°F14.9°C 75% 13.2 mph WNW21.2 kmh WNW 20.5 mph33.0 kmh 30.02 in1016.6 mb 0.00 in0.0 mm 0.00 in0.0 mm 0.00 in0.0 mm
12:10 PM 66.8°F19.3°C 59.0°F15.0°C 76% 11.3 mph W18.2 kmh W 20.5 mph33.0 kmh 30.02 in1016.6 mb 0.00 in0.0 mm 0.00 in0.0 mm 0.00 in0.0 mm
12:15 PM 66.8°F19.3°C 59.4°F15.2°C 77% 9.2 mph W14.8 kmh W 12.2 mph19.6 kmh 30.02 in1016.6 mb 0.00 in0.0 mm 0.00 in0.0 mm 0.00 in0.0 mm
12:20 PM 67.4°F19.7°C 59.9°F15.5°C 77% 9.2 mph W14.8 kmh W 12.2 mph19.6 kmh 30.02 in1016.6 mb 0.00 in0.0 mm 0.00 in0.0 mm 0.00 in0.0 mm
12:25 PM 67.4°F19.7°C 59.9°F15.5°C 77% 9.8 mph W15.8 kmh W 14.6 mph23.5 kmh 30.02 in1016.6 mb 0.00 in0.0 mm 0.00 in0.0 mm 0.00 in0.0 mm
12:30 PM 67.2°F19.6°C 59.7°F15.4°C 77% 9.5 mph W15.3 kmh W 14.6 mph23.5 kmh 30.02 in1016.6 mb 0.00 in0.0 mm 0.00 in0.0 mm 0.00 in0.0 mm
12:35 PM 67.0°F19.4°C 59.6°F15.3°C 77% 9.2 mph W14.8 kmh W 14.3 mph23.0 kmh 30.02 in1016.6 mb 0.00 in0.0 mm 0.00 in0.0 mm 0.00 in0.0 mm
12:40 PM 67.0°F19.4°C 59.6°F15.3°C 77% 10.1 mph W16.3 kmh W 14.3 mph23.0 kmh 30.02 in1016.6 mb 0.00 in0.0 mm 0.00 in0.0 mm 0.00 in0.0 mm
12:45 PM 67.0°F19.4°C 59.6°F15.3°C 77% 9.5 mph W15.3 kmh W 13.7 mph22.0 kmh 30.02 in1016.6 mb 0.00 in0.0 mm 0.00 in0.0 mm 0.00 in0.0 mm
12:50 PM 67.0°F19.4°C 59.6°F15.3°C 77% 9.0 mph W14.5 kmh W 16.4 mph26.4 kmh 30.02 in1016.6 mb 0.00 in0.0 mm 0.00 in0.0 mm 0.00 in0.0 mm
12:55 PM 67.0°F19.4°C 59.6°F15.3°C 77% 9.2 mph WSW14.8 kmh WSW 17.6 mph28.3 kmh 30.02 in1016.6 mb 0.00 in0.0 mm 0.00 in0.0 mm 0.00 in0.0 mm
01:00 PM 67.0°F19.4°C 59.9°F15.5°C 78% 10.4 mph W16.7 kmh W 17.6 mph28.3 kmh 30.02 in1016.6 mb 0.00 in0.0 mm 0.00 in0.0 mm 0.00 in0.0 mm
01:05 PM 66.8°F19.3°C 59.7°F15.4°C 78% 10.4 mph W16.7 kmh W 14.3 mph23.0 kmh 30.02 in1016.6 mb 0.00 in0.0 mm 0.00 in0.0 mm 0.00 in0.0 mm
01:10 PM 66.7°F19.3°C 59.9°F15.5°C 79% 11.3 mph W18.2 kmh W 16.4 mph26.4 kmh 30.02 in1016.6 mb 0.00 in0.0 mm 0.00 in0.0 mm 0.00 in0.0 mm
01:15 PM 66.5°F19.2°C 59.8°F15.4°C 79% 11.3 mph W18.2 kmh W 16.4 mph26.4 kmh 30.02 in1016.6 mb 0.00 in0.0 mm 0.00 in0.0 mm 0.00 in0.0 mm
01:20 PM 66.8°F19.3°C 59.7°F15.4°C 78% 9.3 mph WNW15.0 kmh WNW 13.7 mph22.0 kmh 30.02 in1016.6 mb 0.00 in0.0 mm 0.00 in0.0 mm 0.00 in0.0 mm
01:25 PM 67.4°F19.7°C 60.3°F15.7°C 78% 11.1 mph W17.9 kmh W 17.3 mph27.8 kmh 30.02 in1016.6 mb 0.00 in0.0 mm 0.00 in0.0 mm 0.00 in0.0 mm
01:30 PM 67.9°F19.9°C 60.8°F16.0°C 78% 12.5 mph W20.1 kmh W 18.4 mph29.6 kmh 30.02 in1016.6 mb 0.00 in0.0 mm 0.00 in0.0 mm 0.00 in0.0 mm
01:35 PM 68.1°F20.1°C 60.6°F15.9°C 77% 10.8 mph WNW17.4 kmh WNW 19.6 mph31.5 kmh 30.02 in1016.6 mb 0.00 in0.0 mm 0.00 in0.0 mm 0.00 in0.0 mm
01:40 PM 68.4°F20.2°C 61.0°F16.1°C 77% 11.1 mph W17.9 kmh W 19.6 mph31.5 kmh 30.02 in1016.6 mb 0.00 in0.0 mm 0.00 in0.0 mm 0.00 in0.0 mm
01:45 PM 68.8°F20.4°C 61.3°F16.3°C 77% 10.3 mph W16.6 kmh W 16.4 mph26.4 kmh 30.02 in1016.6 mb 0.00 in0.0 mm 0.00 in0.0 mm 0.00 in0.0 mm
01:50 PM 69.5°F20.8°C 61.6°F16.4°C 76% 11.0 mph W17.7 kmh W 17.0 mph27.4 kmh 30.02 in1016.6 mb 0.00 in0.0 mm 0.00 in0.0 mm 0.00 in0.0 mm
01:55 PM 69.9°F21.1°C 61.6°F16.4°C 75% 13.5 mph W21.7 kmh W 19.3 mph31.1 kmh 30.02 in1016.6 mb 0.00 in0.0 mm 0.00 in0.0 mm 0.00 in0.0 mm
02:00 PM 69.5°F20.8°C 61.3°F16.3°C 75% 13.7 mph W22.0 kmh W 19.3 mph31.1 kmh 30.02 in1016.6 mb 0.00 in0.0 mm 0.00 in0.0 mm 0.00 in0.0 mm
02:05 PM 69.0°F20.6°C 60.4°F15.8°C 74% 13.8 mph WNW22.2 kmh WNW 19.3 mph31.1 kmh 30.02 in1016.6 mb 0.00 in0.0 mm 0.00 in0.0 mm 0.00 in0.0 mm
02:10 PM 68.4°F20.2°C 59.8°F15.4°C 74% 14.5 mph WNW23.3 kmh WNW 17.6 mph28.3 kmh 30.02 in1016.6 mb 0.00 in0.0 mm 0.00 in0.0 mm 0.00 in0.0 mm
02:15 PM 68.3°F20.2°C 59.7°F15.4°C 74% 13.1 mph W21.1 kmh W 17.3 mph27.8 kmh 30.02 in1016.6 mb 0.00 in0.0 mm 0.00 in0.0 mm 0.00 in0.0 mm
02:20 PM 68.1°F20.1°C 59.5°F15.3°C 74% 12.6 mph W20.3 kmh W 19.0 mph30.6 kmh 30.05 in1017.6 mb 0.00 in0.0 mm 0.00 in0.0 mm 0.00 in0.0 mm
02:25 PM 67.9°F19.9°C 58.9°F14.9°C 73% 12.9 mph W20.8 kmh W 19.0 mph30.6 kmh 30.05 in1017.6 mb 0.00 in0.0 mm 0.00 in0.0 mm 0.00 in0.0 mm
02:30 PM 67.9°F19.9°C 59.3°F15.2°C 74% 11.6 mph W18.7 kmh W 16.1 mph25.9 kmh 30.05 in1017.6 mb 0.00 in0.0 mm 0.00 in0.0 mm 0.00 in0.0 mm
02:35 PM 67.7°F19.8°C 59.1°F15.1°C 74% 11.5 mph W18.5 kmh W 15.8 mph25.4 kmh 30.05 in1017.6 mb 0.00 in0.0 mm 0.00 in0.0 mm 0.00 in0.0 mm
02:40 PM 67.2°F19.6°C 59.0°F15.0°C 75% 12.9 mph W20.8 kmh W 16.4 mph26.4 kmh 30.05 in1017.6 mb 0.00 in0.0 mm 0.00 in0.0 mm 0.00 in0.0 mm
02:45 PM 66.5°F19.2°C 58.7°F14.8°C 76% 12.5 mph WNW20.1 kmh WNW 16.4 mph26.4 kmh 30.05 in1017.6 mb 0.00 in0.0 mm 0.00 in0.0 mm 0.00 in0.0 mm
02:50 PM 66.1°F18.9°C 58.3°F14.6°C 76% 11.2 mph W18.0 kmh W 14.3 mph23.0 kmh 30.05 in1017.6 mb 0.00 in0.0 mm 0.00 in0.0 mm 0.00 in0.0 mm
02:55 PM 66.1°F18.9°C 58.3°F14.6°C 76% 12.3 mph W19.8 kmh W 17.3 mph27.8 kmh 30.05 in1017.6 mb 0.00 in0.0 mm 0.00 in0.0 mm 0.00 in0.0 mm
03:00 PM 66.1°F18.9°C 58.7°F14.8°C 77% 11.6 mph WNW18.7 kmh WNW 17.3 mph27.8 kmh 30.05 in1017.6 mb 0.00 in0.0 mm 0.00 in0.0 mm 0.00 in0.0 mm
03:05 PM 66.3°F19.1°C 58.9°F14.9°C 77% 9.7 mph WNW15.6 kmh WNW 12.8 mph20.6 kmh 30.05 in1017.6 mb 0.00 in0.0 mm 0.00 in0.0 mm 0.00 in0.0 mm
03:10 PM 66.7°F19.3°C 59.2°F15.1°C 77% 10.6 mph W17.1 kmh W 18.1 mph29.1 kmh 30.05 in1017.6 mb 0.00 in0.0 mm 0.00 in0.0 mm 0.00 in0.0 mm
03:15 PM 67.0°F19.4°C 59.6°F15.3°C 77% 10.1 mph W16.3 kmh W 18.1 mph29.1 kmh 30.05 in1017.6 mb 0.00 in0.0 mm 0.00 in0.0 mm 0.00 in0.0 mm
03:20 PM 67.7°F19.8°C 59.9°F15.5°C 76% 10.0 mph W16.1 kmh W 16.1 mph25.9 kmh 30.05 in1017.6 mb 0.00 in0.0 mm 0.00 in0.0 mm 0.00 in0.0 mm
03:25 PM 68.1°F20.1°C 59.5°F15.3°C 74% 12.6 mph W20.3 kmh W 18.1 mph29.1 kmh 30.05 in1017.6 mb 0.00 in0.0 mm 0.00 in0.0 mm 0.00 in0.0 mm
03:30 PM 68.4°F20.2°C 59.8°F15.4°C 74% 12.6 mph W20.3 kmh W 18.1 mph29.1 kmh 30.05 in1017.6 mb 0.00 in0.0 mm 0.00 in0.0 mm 0.00 in0.0 mm
03:35 PM 68.6°F20.3°C 59.6°F15.3°C 73% 12.3 mph W19.8 kmh W 20.5 mph33.0 kmh 30.05 in1017.6 mb 0.00 in0.0 mm 0.00 in0.0 mm 0.00 in0.0 mm
03:40 PM 69.3°F20.7°C 59.5°F15.3°C 71% 10.7 mph W17.2 kmh W 20.5 mph33.0 kmh 30.05 in1017.6 mb 0.00 in0.0 mm 0.00 in0.0 mm 0.00 in0.0 mm
03:45 PM 69.3°F20.7°C 59.5°F15.3°C 71% 12.1 mph W19.5 kmh W 20.5 mph33.0 kmh 30.05 in1017.6 mb 0.00 in0.0 mm 0.00 in0.0 mm 0.00 in0.0 mm
03:50 PM 69.5°F20.8°C 59.3°F15.2°C 70% 13.7 mph W22.0 kmh W 20.5 mph33.0 kmh 30.05 in1017.6 mb 0.00 in0.0 mm 0.00 in0.0 mm 0.00 in0.0 mm
03:55 PM 69.5°F20.8°C 59.3°F15.2°C 70% 16.1 mph W25.9 kmh W 23.5 mph37.8 kmh 30.05 in1017.6 mb 0.00 in0.0 mm 0.00 in0.0 mm 0.00 in0.0 mm
04:00 PM 69.5°F20.8°C 58.9°F14.9°C 69% 16.6 mph W26.7 kmh W 27.1 mph43.6 kmh 30.05 in1017.6 mb 0.00 in0.0 mm 0.00 in0.0 mm 0.00 in0.0 mm
04:05 PM 69.3°F20.7°C 58.7°F14.8°C 69% 14.8 mph WNW23.8 kmh WNW 27.1 mph43.6 kmh 30.05 in1017.6 mb 0.00 in0.0 mm 0.00 in0.0 mm 0.00 in0.0 mm
04:10 PM 69.2°F20.7°C 58.6°F14.8°C 69% 16.8 mph WNW27.0 kmh WNW 25.6 mph41.2 kmh 30.05 in1017.6 mb 0.00 in0.0 mm 0.00 in0.0 mm 0.00 in0.0 mm
04:15 PM 69.0°F20.6°C 58.4°F14.7°C 69% 15.9 mph WNW25.6 kmh WNW 24.1 mph38.8 kmh 30.05 in1017.6 mb 0.00 in0.0 mm 0.00 in0.0 mm 0.00 in0.0 mm
04:20 PM 68.8°F20.4°C 58.2°F14.6°C 69% 12.6 mph WNW20.3 kmh WNW 17.9 mph28.8 kmh 30.05 in1017.6 mb 0.00 in0.0 mm 0.00 in0.0 mm 0.00 in0.0 mm
04:25 PM 68.8°F20.4°C 57.8°F14.3°C 68% 14.0 mph W22.5 kmh W 19.3 mph31.1 kmh 30.05 in1017.6 mb 0.00 in0.0 mm 0.00 in0.0 mm 0.00 in0.0 mm
04:30 PM 68.8°F20.4°C 57.8°F14.3°C 68% 14.4 mph W23.2 kmh W 19.3 mph31.1 kmh 30.05 in1017.6 mb 0.00 in0.0 mm 0.00 in0.0 mm 0.00 in0.0 mm
04:35 PM 68.8°F20.4°C 57.8°F14.3°C 68% 12.0 mph WNW19.3 kmh WNW 17.0 mph27.4 kmh 30.05 in1017.6 mb 0.00 in0.0 mm 0.00 in0.0 mm 0.00 in0.0 mm
04:40 PM 68.4°F20.2°C 57.9°F14.4°C 69% 11.8 mph WNW19.0 kmh WNW 17.0 mph27.4 kmh 30.05 in1017.6 mb 0.00 in0.0 mm 0.00 in0.0 mm 0.00 in0.0 mm
04:45 PM 68.3°F20.2°C 57.7°F14.3°C 69% 11.5 mph WNW18.5 kmh WNW 17.0 mph27.4 kmh 30.05 in1017.6 mb 0.00 in0.0 mm 0.00 in0.0 mm 0.00 in0.0 mm
04:50 PM 67.7°F19.8°C 57.2°F14.0°C 69% 11.5 mph WNW18.5 kmh WNW 20.5 mph33.0 kmh 30.05 in1017.6 mb 0.00 in0.0 mm 0.00 in0.0 mm 0.00 in0.0 mm
04:55 PM 67.2°F19.6°C 56.3°F13.5°C 68% 11.4 mph WNW18.3 kmh WNW 20.5 mph33.0 kmh 30.05 in1017.6 mb 0.00 in0.0 mm 0.00 in0.0 mm 0.00 in0.0 mm
05:00 PM 67.0°F19.4°C 56.1°F13.4°C 68% 10.6 mph WNW17.1 kmh WNW 18.7 mph30.1 kmh 30.05 in1017.6 mb 0.00 in0.0 mm 0.00 in0.0 mm 0.00 in0.0 mm
05:05 PM 66.8°F19.3°C 55.9°F13.3°C 68% 14.0 mph NW22.5 kmh NW 26.5 mph42.6 kmh 30.05 in1017.6 mb 0.00 in0.0 mm 0.00 in0.0 mm 0.00 in0.0 mm
05:10 PM 66.5°F19.2°C 56.0°F13.3°C 69% 15.3 mph WNW24.6 kmh WNW 26.5 mph42.6 kmh 30.05 in1017.6 mb 0.00 in0.0 mm 0.00 in0.0 mm 0.00 in0.0 mm
05:15 PM 66.7°F19.3°C 56.2°F13.4°C 69% 14.9 mph W24.0 kmh W 23.5 mph37.8 kmh 30.05 in1017.6 mb 0.00 in0.0 mm 0.00 in0.0 mm 0.00 in0.0 mm
05:20 PM 66.8°F19.3°C 56.3°F13.5°C 69% 14.8 mph WNW23.8 kmh WNW 23.5 mph37.8 kmh 30.05 in1017.6 mb 0.00 in0.0 mm 0.00 in0.0 mm 0.00 in0.0 mm
05:25 PM 66.7°F19.3°C 56.2°F13.4°C 69% 15.0 mph WNW24.1 kmh WNW 23.5 mph37.8 kmh 30.05 in1017.6 mb 0.00 in0.0 mm 0.00 in0.0 mm 0.00 in0.0 mm
05:30 PM 66.8°F19.3°C 55.9°F13.3°C 68% 16.1 mph W25.9 kmh W 23.5 mph37.8 kmh 30.05 in1017.6 mb 0.00 in0.0 mm 0.00 in0.0 mm 0.00 in0.0 mm
05:35 PM 66.8°F19.3°C 55.5°F13.1°C 67% 14.0 mph W22.5 kmh W 20.8 mph33.5 kmh 30.05 in1017.6 mb 0.00 in0.0 mm 0.00 in0.0 mm 0.00 in0.0 mm
05:40 PM 66.7°F19.3°C 55.8°F13.2°C 68% 12.7 mph W20.4 kmh W 17.3 mph27.8 kmh 30.05 in1017.6 mb 0.00 in0.0 mm 0.00 in0.0 mm 0.00 in0.0 mm
05:45 PM 66.1°F18.9°C 55.2°F12.9°C 68% 12.6 mph WNW20.3 kmh WNW 19.6 mph31.5 kmh 30.05 in1017.6 mb 0.00 in0.0 mm 0.00 in0.0 mm 0.00 in0.0 mm
05:50 PM 65.8°F18.8°C 55.3°F12.9°C 69% 12.5 mph WNW20.1 kmh WNW 19.6 mph31.5 kmh 30.05 in1017.6 mb 0.00 in0.0 mm 0.00 in0.0 mm 0.00 in0.0 mm
05:55 PM 65.4°F18.6°C 55.0°F12.8°C 69% 11.6 mph W18.7 kmh W 16.1 mph25.9 kmh 30.05 in1017.6 mb 0.00 in0.0 mm 0.00 in0.0 mm 0.00 in0.0 mm
06:00 PM 65.2°F18.4°C 54.8°F12.7°C 69% 13.3 mph W21.4 kmh W 19.3 mph31.1 kmh 30.05 in1017.6 mb 0.00 in0.0 mm 0.00 in0.0 mm 0.00 in0.0 mm
06:05 PM 65.0°F18.3°C 55.0°F12.8°C 70% 13.1 mph W21.1 kmh W 19.3 mph31.1 kmh 30.05 in1017.6 mb 0.00 in0.0 mm 0.00 in0.0 mm 0.00 in0.0 mm
06:10 PM 64.8°F18.2°C 54.8°F12.7°C 70% 13.8 mph W22.2 kmh W 21.7 mph34.9 kmh 30.05 in1017.6 mb 0.00 in0.0 mm 0.00 in0.0 mm 0.00 in0.0 mm
06:15 PM 64.7°F18.2°C 54.7°F12.6°C 70% 15.2 mph W24.5 kmh W 21.7 mph34.9 kmh 30.05 in1017.6 mb 0.00 in0.0 mm 0.00 in0.0 mm 0.00 in0.0 mm
06:20 PM 64.7°F18.2°C 54.7°F12.6°C 70% 13.3 mph W21.4 kmh W 17.3 mph27.8 kmh 30.05 in1017.6 mb 0.00 in0.0 mm 0.00 in0.0 mm 0.00 in0.0 mm
06:25 PM 64.5°F18.1°C 54.9°F12.7°C 71% 10.5 mph WNW16.9 kmh WNW 15.8 mph25.4 kmh 30.05 in1017.6 mb 0.00 in0.0 mm 0.00 in0.0 mm 0.00 in0.0 mm
06:30 PM 64.5°F18.1°C 54.9°F12.7°C 71% 10.2 mph WNW16.4 kmh WNW 15.8 mph25.4 kmh 30.05 in1017.6 mb 0.00 in0.0 mm 0.00 in0.0 mm 0.00 in0.0 mm
06:35 PM 64.3°F17.9°C 54.7°F12.6°C 71% 8.5 mph WNW13.7 kmh WNW 13.4 mph21.6 kmh 30.05 in1017.6 mb 0.00 in0.0 mm 0.00 in0.0 mm 0.00 in0.0 mm
06:40 PM 64.3°F17.9°C 54.7°F12.6°C 71% 8.4 mph WNW13.5 kmh WNW 12.5 mph20.1 kmh 30.05 in1017.6 mb 0.00 in0.0 mm 0.00 in0.0 mm 0.00 in0.0 mm
06:45 PM 64.1°F17.8°C 54.9°F12.7°C 72% 9.6 mph W15.4 kmh W 13.1 mph21.1 kmh 30.05 in1017.6 mb 0.00 in0.0 mm 0.00 in0.0 mm 0.00 in0.0 mm
06:50 PM 64.1°F17.8°C 54.9°F12.7°C 72% 10.7 mph W17.2 kmh W 14.3 mph23.0 kmh 30.05 in1017.6 mb 0.00 in0.0 mm 0.00 in0.0 mm 0.00 in0.0 mm
06:55 PM 64.0°F17.8°C 54.7°F12.6°C 72% 11.2 mph W18.0 kmh W 19.0 mph30.6 kmh 30.05 in1017.6 mb 0.00 in0.0 mm 0.00 in0.0 mm 0.00 in0.0 mm
07:00 PM 64.0°F17.8°C 55.1°F12.8°C 73% 10.4 mph NW16.7 kmh NW 19.0 mph30.6 kmh 30.05 in1017.6 mb 0.00 in0.0 mm 0.00 in0.0 mm 0.00 in0.0 mm
07:05 PM 64.0°F17.8°C 55.1°F12.8°C 73% 10.1 mph NW16.3 kmh NW 19.0 mph30.6 kmh 30.05 in1017.6 mb 0.00 in0.0 mm 0.00 in0.0 mm 0.00 in0.0 mm
07:10 PM 64.0°F17.8°C 55.1°F12.8°C 73% 10.3 mph WNW16.6 kmh WNW 16.7 mph26.9 kmh 30.05 in1017.6 mb 0.00 in0.0 mm 0.00 in0.0 mm 0.00 in0.0 mm
07:15 PM 64.0°F17.8°C 55.5°F13.1°C 74% 9.5 mph WNW15.3 kmh WNW 16.7 mph26.9 kmh 30.05 in1017.6 mb 0.00 in0.0 mm 0.00 in0.0 mm 0.00 in0.0 mm
07:20 PM 63.8°F17.7°C 55.3°F12.9°C 74% 7.0 mph WNW11.3 kmh WNW 10.1 mph16.3 kmh 30.05 in1017.6 mb 0.00 in0.0 mm 0.00 in0.0 mm 0.00 in0.0 mm
07:25 PM 63.8°F17.7°C 55.3°F12.9°C 74% 7.3 mph WNW11.7 kmh WNW 10.1 mph16.3 kmh 30.05 in1017.6 mb 0.00 in0.0 mm 0.00 in0.0 mm 0.00 in0.0 mm
07:30 PM 63.8°F17.7°C 55.3°F12.9°C 74% 9.0 mph WNW14.5 kmh WNW 17.6 mph28.3 kmh 30.05 in1017.6 mb 0.00 in0.0 mm 0.00 in0.0 mm 0.00 in0.0 mm
07:35 PM 63.8°F17.7°C 55.7°F13.2°C 75% 9.7 mph W15.6 kmh W 17.6 mph28.3 kmh 30.05 in1017.6 mb 0.00 in0.0 mm 0.00 in0.0 mm 0.00 in0.0 mm
07:40 PM 63.8°F17.7°C 55.7°F13.2°C 75% 9.0 mph W14.5 kmh W 17.6 mph28.3 kmh 30.05 in1017.6 mb 0.00 in0.0 mm 0.00 in0.0 mm 0.00 in0.0 mm
07:45 PM 63.8°F17.7°C 55.7°F13.2°C 75% 7.9 mph WNW12.7 kmh WNW 11.3 mph18.2 kmh 30.05 in1017.6 mb 0.00 in0.0 mm 0.00 in0.0 mm 0.00 in0.0 mm
07:50 PM 63.8°F17.7°C 55.7°F13.2°C 75% 8.0 mph WNW12.9 kmh WNW 10.4 mph16.7 kmh 30.05 in1017.6 mb 0.00 in0.0 mm 0.00 in0.0 mm 0.00 in0.0 mm
07:55 PM 63.8°F17.7°C 55.7°F13.2°C 75% 7.5 mph W12.1 kmh W 10.4 mph16.7 kmh 30.05 in1017.6 mb 0.00 in0.0 mm 0.00 in0.0 mm 0.00 in0.0 mm
08:00 PM 63.8°F17.7°C 55.7°F13.2°C 75% 6.7 mph W10.8 kmh W 9.8 mph15.8 kmh 30.05 in1017.6 mb 0.00 in0.0 mm 0.00 in0.0 mm 0.00 in0.0 mm
08:05 PM 63.8°F17.7°C 56.1°F13.4°C 76% 7.2 mph W11.6 kmh W 17.3 mph27.8 kmh 30.05 in1017.6 mb 0.00 in0.0 mm 0.00 in0.0 mm 0.00 in0.0 mm
08:10 PM 63.8°F17.7°C 56.4°F13.6°C 77% 10.9 mph W17.5 kmh W 17.3 mph27.8 kmh 30.05 in1017.6 mb 0.00 in0.0 mm 0.00 in0.0 mm 0.00 in0.0 mm
08:15 PM 63.6°F17.6°C 56.2°F13.4°C 77% 12.6 mph W20.3 kmh W 17.0 mph27.4 kmh 30.05 in1017.6 mb 0.00 in0.0 mm 0.00 in0.0 mm 0.00 in0.0 mm
08:20 PM 63.6°F17.6°C 55.9°F13.3°C 76% 11.1 mph W17.9 kmh W 13.4 mph21.6 kmh 30.05 in1017.6 mb 0.00 in0.0 mm 0.00 in0.0 mm 0.00 in0.0 mm
08:25 PM 63.6°F17.6°C 55.9°F13.3°C 76% 10.7 mph WNW17.2 kmh WNW 16.1 mph25.9 kmh 30.05 in1017.6 mb 0.00 in0.0 mm 0.00 in0.0 mm 0.00 in0.0 mm
08:30 PM 63.6°F17.6°C 55.9°F13.3°C 76% 10.7 mph W17.2 kmh W 18.4 mph29.6 kmh 30.05 in1017.6 mb 0.00 in0.0 mm 0.00 in0.0 mm 0.00 in0.0 mm
08:35 PM 63.6°F17.6°C 55.1°F12.8°C 74% 11.6 mph W18.7 kmh W 18.4 mph29.6 kmh 30.05 in1017.6 mb 0.00 in0.0 mm 0.00 in0.0 mm 0.00 in0.0 mm
08:40 PM 63.6°F17.6°C 55.1°F12.8°C 74% 11.2 mph W18.0 kmh W 13.4 mph21.6 kmh 30.05 in1017.6 mb 0.00 in0.0 mm 0.00 in0.0 mm 0.00 in0.0 mm
08:45 PM 63.6°F17.6°C 55.1°F12.8°C 74% 8.3 mph W13.4 kmh W 13.4 mph21.6 kmh 30.05 in1017.6 mb 0.00 in0.0 mm 0.00 in0.0 mm 0.00 in0.0 mm
08:50 PM 63.4°F17.4°C 55.0°F12.8°C 74% 8.0 mph NW12.9 kmh NW 13.4 mph21.6 kmh 30.05 in1017.6 mb 0.00 in0.0 mm 0.00 in0.0 mm 0.00 in0.0 mm
08:55 PM 63.4°F17.4°C 55.0°F12.8°C 74% 8.4 mph NW13.5 kmh NW 11.6 mph18.7 kmh 30.05 in1017.6 mb 0.00 in0.0 mm 0.00 in0.0 mm 0.00 in0.0 mm
09:00 PM 63.4°F17.4°C 55.0°F12.8°C 74% 9.6 mph W15.4 kmh W 14.3 mph23.0 kmh 30.05 in1017.6 mb 0.00 in0.0 mm 0.00 in0.0 mm 0.00 in0.0 mm
09:05 PM 63.2°F17.3°C 54.8°F12.7°C 74% 10.6 mph WNW17.1 kmh WNW 14.3 mph23.0 kmh 30.05 in1017.6 mb 0.00 in0.0 mm 0.00 in0.0 mm 0.00 in0.0 mm
09:10 PM 63.2°F17.3°C 54.8°F12.7°C 74% 10.5 mph WNW16.9 kmh WNW 15.8 mph25.4 kmh 30.05 in1017.6 mb 0.00 in0.0 mm 0.00 in0.0 mm 0.00 in0.0 mm
09:15 PM 63.2°F17.3°C 55.2°F12.9°C 75% 9.5 mph WNW15.3 kmh WNW 15.8 mph25.4 kmh 30.05 in1017.6 mb 0.00 in0.0 mm 0.00 in0.0 mm 0.00 in0.0 mm
09:20 PM 63.2°F17.3°C 55.2°F12.9°C 75% 6.9 mph WNW11.1 kmh WNW 9.8 mph15.8 kmh 30.05 in1017.6 mb 0.00 in0.0 mm 0.00 in0.0 mm 0.00 in0.0 mm
09:25 PM 63.2°F17.3°C 55.2°F12.9°C 75% 8.3 mph WNW13.4 kmh WNW 14.0 mph22.5 kmh 30.05 in1017.6 mb 0.00 in0.0 mm 0.00 in0.0 mm 0.00 in0.0 mm
09:30 PM 63.2°F17.3°C 55.2°F12.9°C 75% 9.6 mph WNW15.4 kmh WNW 14.0 mph22.5 kmh 30.05 in1017.6 mb 0.00 in0.0 mm 0.00 in0.0 mm 0.00 in0.0 mm
09:35 PM 63.2°F17.3°C 55.2°F12.9°C 75% 7.5 mph WNW12.1 kmh WNW 12.8 mph20.6 kmh 30.05 in1017.6 mb 0.00 in0.0 mm 0.00 in0.0 mm 0.00 in0.0 mm
09:40 PM 63.2°F17.3°C 55.2°F12.9°C 75% 7.2 mph NW11.6 kmh NW 11.3 mph18.2 kmh 30.05 in1017.6 mb 0.00 in0.0 mm 0.00 in0.0 mm 0.00 in0.0 mm
09:45 PM 63.2°F17.3°C 55.2°F12.9°C 75% 9.1 mph WNW14.6 kmh WNW 13.1 mph21.1 kmh 30.05 in1017.6 mb 0.00 in0.0 mm 0.00 in0.0 mm 0.00 in0.0 mm
09:50 PM 63.2°F17.3°C 55.2°F12.9°C 75% 7.9 mph W12.7 kmh W 13.1 mph21.1 kmh 30.05 in1017.6 mb 0.00 in0.0 mm 0.00 in0.0 mm 0.00 in0.0 mm
09:55 PM 63.2°F17.3°C 55.2°F12.9°C 75% 6.9 mph NW11.1 kmh NW 11.6 mph18.7 kmh 30.05 in1017.6 mb 0.00 in0.0 mm 0.00 in0.0 mm 0.00 in0.0 mm
10:00 PM 63.2°F17.3°C 55.2°F12.9°C 75% 7.6 mph WNW12.2 kmh WNW 11.6 mph18.7 kmh 30.05 in1017.6 mb 0.00 in0.0 mm 0.00 in0.0 mm 0.00 in0.0 mm
10:05 PM 63.4°F17.4°C 55.3°F12.9°C 75% 8.6 mph W13.8 kmh W 12.8 mph20.6 kmh 30.05 in1017.6 mb 0.00 in0.0 mm 0.00 in0.0 mm 0.00 in0.0 mm
10:10 PM 63.6°F17.6°C 55.5°F13.1°C 75% 9.2 mph W14.8 kmh W 12.8 mph20.6 kmh 30.05 in1017.6 mb 0.00 in0.0 mm 0.00 in0.0 mm 0.00 in0.0 mm
10:15 PM 63.6°F17.6°C 55.9°F13.3°C 76% 9.9 mph W15.9 kmh W 16.1 mph25.9 kmh 30.05 in1017.6 mb 0.00 in0.0 mm 0.00 in0.0 mm 0.00 in0.0 mm
10:20 PM 63.6°F17.6°C 55.9°F13.3°C 76% 10.0 mph W16.1 kmh W 16.1 mph25.9 kmh 30.05 in1017.6 mb 0.00 in0.0 mm 0.00 in0.0 mm 0.00 in0.0 mm
10:25 PM 63.6°F17.6°C 55.9°F13.3°C 76% 10.6 mph W17.1 kmh W 16.1 mph25.9 kmh 30.05 in1017.6 mb 0.00 in0.0 mm 0.00 in0.0 mm 0.00 in0.0 mm
10:30 PM 63.6°F17.6°C 55.9°F13.3°C 76% 10.6 mph W17.1 kmh W 14.6 mph23.5 kmh 30.05 in1017.6 mb 0.00 in0.0 mm 0.00 in0.0 mm 0.00 in0.0 mm
10:35 PM 63.6°F17.6°C 55.9°F13.3°C 76% 10.1 mph WSW16.3 kmh WSW 12.8 mph20.6 kmh 30.05 in1017.6 mb 0.00 in0.0 mm 0.00 in0.0 mm 0.00 in0.0 mm
10:40 PM 63.6°F17.6°C 55.9°F13.3°C 76% 11.4 mph WSW18.3 kmh WSW 17.3 mph27.8 kmh 30.05 in1017.6 mb 0.00 in0.0 mm 0.00 in0.0 mm 0.00 in0.0 mm
10:45 PM 63.6°F17.6°C 55.9°F13.3°C 76% 11.6 mph W18.7 kmh W 17.3 mph27.8 kmh 30.05 in1017.6 mb 0.00 in0.0 mm 0.00 in0.0 mm 0.00 in0.0 mm
10:50 PM 63.6°F17.6°C 55.9°F13.3°C 76% 10.7 mph W17.2 kmh W 17.0 mph27.4 kmh 30.05 in1017.6 mb 0.00 in0.0 mm 0.00 in0.0 mm 0.00 in0.0 mm
10:55 PM 63.6°F17.6°C 55.9°F13.3°C 76% 10.2 mph W16.4 kmh W 17.0 mph27.4 kmh 30.05 in1017.6 mb 0.00 in0.0 mm 0.00 in0.0 mm 0.00 in0.0 mm
11:00 PM 63.6°F17.6°C 55.9°F13.3°C 76% 10.2 mph W16.4 kmh W 17.0 mph27.4 kmh 30.05 in1017.6 mb 0.00 in0.0 mm 0.00 in0.0 mm 0.00 in0.0 mm
11:05 PM 63.6°F17.6°C 56.2°F13.4°C 77% 9.2 mph W14.8 kmh W 14.3 mph23.0 kmh 30.02 in1016.6 mb 0.00 in0.0 mm 0.00 in0.0 mm 0.00 in0.0 mm
11:10 PM 63.6°F17.6°C 56.2°F13.4°C 77% 9.5 mph W15.3 kmh W 14.3 mph23.0 kmh 30.02 in1016.6 mb 0.00 in0.0 mm 0.00 in0.0 mm 0.00 in0.0 mm
11:15 PM 63.6°F17.6°C 56.2°F13.4°C 77% 10.2 mph WNW16.4 kmh WNW 14.3 mph23.0 kmh 30.02 in1016.6 mb 0.00 in0.0 mm 0.00 in0.0 mm 0.00 in0.0 mm
11:20 PM 63.6°F17.6°C 56.2°F13.4°C 77% 10.5 mph WNW16.9 kmh WNW 14.3 mph23.0 kmh 30.02 in1016.6 mb 0.00 in0.0 mm 0.00 in0.0 mm 0.00 in0.0 mm
11:25 PM 63.6°F17.6°C 56.2°F13.4°C 77% 10.6 mph W17.1 kmh W 14.6 mph23.5 kmh 30.02 in1016.6 mb 0.00 in0.0 mm 0.00 in0.0 mm 0.00 in0.0 mm
11:30 PM 63.6°F17.6°C 55.9°F13.3°C 76% 10.9 mph W17.5 kmh W 14.6 mph23.5 kmh 30.02 in1016.6 mb 0.00 in0.0 mm 0.00 in0.0 mm 0.00 in0.0 mm
11:35 PM 63.6°F17.6°C 55.9°F13.3°C 76% 10.2 mph W16.4 kmh W 14.3 mph23.0 kmh 30.02 in1016.6 mb 0.00 in0.0 mm 0.00 in0.0 mm 0.00 in0.0 mm
11:40 PM 63.6°F17.6°C 55.9°F13.3°C 76% 10.2 mph WNW16.4 kmh WNW 17.3 mph27.8 kmh 30.02 in1016.6 mb 0.00 in0.0 mm 0.00 in0.0 mm 0.00 in0.0 mm
11:45 PM 63.6°F17.6°C 55.9°F13.3°C 76% 11.4 mph W18.3 kmh W 19.3 mph31.1 kmh 30.02 in1016.6 mb 0.00 in0.0 mm 0.00 in0.0 mm 0.00 in0.0 mm
11:50 PM 63.6°F17.6°C 55.9°F13.3°C 76% 12.3 mph W19.8 kmh W 19.3 mph31.1 kmh 30.02 in1016.6 mb 0.00 in0.0 mm 0.00 in0.0 mm 0.00 in0.0 mm
11:55 PM 63.6°F17.6°C 55.5°F13.1°C 75% 11.2 mph W18.0 kmh W 16.4 mph26.4 kmh 30.02 in1016.6 mb 0.00 in0.0 mm 0.00 in0.0 mm 0.00 in0.0 mm